Time,TemperatureF,DewpointF,PressureIn,WindDirection,WindDirectionDegrees,WindSpeedMPH,WindSpeedGustMPH,Humidity,HourlyPrecipIn,Conditions,Clouds,dailyrainin,SoftwareType,DateUTC
2013-06-27 00:09:00,74.0,68.0,29.91,SE,140,0.0,0.0,80,0.00,,,0.00,weatherlink.com 1.10,2013-06-27 04:09:00,
2013-06-27 00:24:00,73.7,67.0,29.91,SE,140,0.0,1.0,80,0.00,,,0.00,weatherlink.com 1.10,2013-06-27 04:24:00,
2013-06-27 00:39:00,73.3,67.0,29.91,SE,140,0.0,0.0,80,0.00,,,0.00,weatherlink.com 1.10,2013-06-27 04:39:00,
2013-06-27 00:54:00,73.2,67.0,29.91,SE,140,1.0,1.0,81,0.00,,,0.00,weatherlink.com 1.10,2013-06-27 04:54:00,
2013-06-27 01:09:00,73.0,67.0,29.91,SE,140,0.0,2.0,82,0.00,,,0.00,weatherlink.com 1.10,2013-06-27 05:09:00,
2013-06-27 01:24:00,72.8,67.0,29.90,SE,142,0.0,1.0,83,0.00,,,0.00,weatherlink.com 1.10,2013-06-27 05:24:00,
2013-06-27 01:39:00,72.5,67.0,29.91,SE,142,0.0,1.0,84,0.00,,,0.00,weatherlink.com 1.10,2013-06-27 05:39:00,
2013-06-27 01:54:00,72.3,67.0,29.90,SE,142,0.0,1.0,84,0.00,,,0.00,weatherlink.com 1.10,2013-06-27 05:54:00,
2013-06-27 02:09:00,72.1,67.0,29.89,SE,142,0.0,0.0,85,0.00,,,0.00,weatherlink.com 1.10,2013-06-27 06:09:00,
2013-06-27 02:24:00,71.8,68.0,29.89,SE,142,0.0,0.0,86,0.00,,,0.00,weatherlink.com 1.10,2013-06-27 06:24:00,
2013-06-27 02:39:00,71.6,68.0,29.88,SE,142,0.0,1.0,88,0.00,,,0.00,weatherlink.com 1.10,2013-06-27 06:39:00,
2013-06-27 02:54:00,71.5,68.0,29.87,SE,142,0.0,1.0,89,0.00,,,0.00,weatherlink.com 1.10,2013-06-27 06:54:00,
2013-06-27 03:09:00,71.5,69.0,29.86,SSE,162,0.0,4.0,90,0.00,,,0.00,weatherlink.com 1.10,2013-06-27 07:09:00,
2013-06-27 03:24:00,71.6,69.0,29.84,SSE,162,0.0,2.0,91,0.00,,,0.00,weatherlink.com 1.10,2013-06-27 07:24:00,
2013-06-27 03:39:00,71.6,69.0,29.84,SSE,155,0.0,1.0,92,0.00,,,0.00,weatherlink.com 1.10,2013-06-27 07:39:00,
2013-06-27 03:54:00,71.8,70.0,29.84,South,170,0.0,4.0,93,0.00,,,0.00,weatherlink.com 1.10,2013-06-27 07:54:00,
2013-06-27 04:10:00,71.8,70.0,29.84,SSE,154,1.0,1.0,93,0.00,,,0.00,weatherlink.com 1.10,2013-06-27 08:10:00,
2013-06-27 04:25:00,72.0,70.0,29.83,SSE,148,1.0,1.0,94,0.00,,,0.00,weatherlink.com 1.10,2013-06-27 08:25:00,
2013-06-27 04:40:00,72.1,70.0,29.83,SSE,148,0.0,0.0,94,0.00,,,0.00,weatherlink.com 1.10,2013-06-27 08:40:00,
2013-06-27 04:55:00,72.5,71.0,29.82,SE,137,0.0,2.0,94,0.00,,,0.00,weatherlink.com 1.10,2013-06-27 08:55:00,
2013-06-27 05:10:00,72.7,71.0,29.82,South,173,0.0,2.0,94,0.00,,,0.00,weatherlink.com 1.10,2013-06-27 09:10:00,
2013-06-27 05:25:00,72.7,71.0,29.83,South,173,0.0,0.0,94,0.00,,,0.00,weatherlink.com 1.10,2013-06-27 09:25:00,
2013-06-27 05:40:00,72.7,71.0,29.84,South,173,0.0,2.0,94,0.00,,,0.00,weatherlink.com 1.10,2013-06-27 09:40:00,
2013-06-27 05:55:00,72.7,71.0,29.84,ESE,111,0.0,2.0,95,0.00,,,0.00,weatherlink.com 1.10,2013-06-27 09:55:00,
2013-06-27 06:10:00,72.7,71.0,29.83,South,178,0.0,3.0,95,0.00,,,0.00,weatherlink.com 1.10,2013-06-27 10:10:00,
2013-06-27 06:25:00,72.7,71.0,29.83,South,178,0.0,1.0,95,0.00,,,0.00,weatherlink.com 1.10,2013-06-27 10:25:00,
2013-06-27 06:40:00,72.7,71.0,29.83,SSE,150,0.0,5.0,95,0.00,,,0.00,weatherlink.com 1.10,2013-06-27 10:40:00,
2013-06-27 06:55:00,72.8,71.0,29.82,South,177,0.0,4.0,95,0.00,,,0.00,weatherlink.com 1.10,2013-06-27 10:55:00,
2013-06-27 07:10:00,73.0,72.0,29.82,SSE,150,0.0,2.0,95,0.00,,,0.00,weatherlink.com 1.10,2013-06-27 11:10:00,
2013-06-27 07:25:00,73.3,72.0,29.82,ESE,121,0.0,2.0,95,0.00,,,0.00,weatherlink.com 1.10,2013-06-27 11:25:00,
2013-06-27 07:40:00,73.7,72.0,29.82,SE,142,0.0,1.0,94,0.00,,,0.00,weatherlink.com 1.10,2013-06-27 11:40:00,
2013-06-27 07:55:00,74.2,72.0,29.81,ESE,122,0.0,3.0,93,0.00,,,0.00,weatherlink.com 1.10,2013-06-27 11:55:00,
2013-06-27 08:10:00,74.9,72.0,29.82,WSW,237,0.0,4.0,91,0.00,,,0.00,weatherlink.com 1.10,2013-06-27 12:10:00,
2013-06-27 08:25:00,75.4,72.0,29.82,East,82,0.0,2.0,89,0.00,,,0.00,weatherlink.com 1.10,2013-06-27 12:25:00,
2013-06-27 08:40:00,76.1,72.0,29.82,NE,48,1.0,2.0,87,0.00,,,0.00,weatherlink.com 1.10,2013-06-27 12:40:00,
2013-06-27 08:55:00,76.5,72.0,29.82,SE,127,0.0,1.0,85,0.00,,,0.00,weatherlink.com 1.10,2013-06-27 12:55:00,
2013-06-27 09:10:00,76.7,71.0,29.82,SSW,195,0.0,2.0,83,0.00,,,0.00,weatherlink.com 1.10,2013-06-27 13:10:00,
2013-06-27 09:25:00,76.8,71.0,29.82,South,169,1.0,3.0,83,0.00,,,0.00,weatherlink.com 1.10,2013-06-27 13:25:00,
2013-06-27 09:40:00,77.0,72.0,29.82,SSE,161,0.0,2.0,83,0.00,,,0.00,weatherlink.com 1.10,2013-06-27 13:40:00,
2013-06-27 09:55:00,77.4,71.0,29.81,SSE,148,0.0,5.0,81,0.00,,,0.00,weatherlink.com 1.10,2013-06-27 13:55:00,
2013-06-27 10:10:00,77.7,71.0,29.82,SW,234,0.0,2.0,79,0.00,,,0.00,weatherlink.com 1.10,2013-06-27 14:10:00,
2013-06-27 10:25:00,78.3,71.0,29.81,SSW,210,2.0,2.0,79,0.00,,,0.00,weatherlink.com 1.10,2013-06-27 14:25:00,
2013-06-27 10:40:00,79.0,72.0,29.81,ESE,122,0.0,5.0,79,0.00,,,0.00,weatherlink.com 1.10,2013-06-27 14:40:00,
2013-06-27 10:55:00,79.6,73.0,29.81,SW,229,4.0,4.0,80,0.00,,,0.00,weatherlink.com 1.10,2013-06-27 14:55:00,
2013-06-27 11:10:00,80.3,73.0,29.81,SE,143,0.0,4.0,78,0.00,,,0.00,weatherlink.com 1.10,2013-06-27 15:10:00,
2013-06-27 11:25:00,82.2,74.0,29.81,South,178,1.0,2.0,75,0.00,,,0.00,weatherlink.com 1.10,2013-06-27 15:25:00,
2013-06-27 11:40:00,83.4,73.0,29.81,SE,138,0.0,4.0,71,0.00,,,0.00,weatherlink.com 1.10,2013-06-27 15:40:00,
2013-06-27 11:55:00,84.0,73.0,29.81,SSE,157,0.0,4.0,69,0.00,,,0.00,weatherlink.com 1.10,2013-06-27 15:55:00,
2013-06-27 12:10:00,85.5,73.0,29.80,NNW,331,2.0,2.0,67,0.00,,,0.00,weatherlink.com 1.10,2013-06-27 16:10:00,
2013-06-27 12:25:00,85.1,72.0,29.80,SSW,210,2.0,3.0,65,0.00,,,0.00,weatherlink.com 1.10,2013-06-27 16:25:00,
2013-06-27 12:40:00,84.7,73.0,29.80,SW,221,0.0,2.0,67,0.00,,,0.00,weatherlink.com 1.10,2013-06-27 16:40:00,
2013-06-27 12:55:00,84.9,72.0,29.79,South,190,0.0,3.0,66,0.00,,,0.00,weatherlink.com 1.10,2013-06-27 16:55:00,
2013-06-27 13:10:00,85.3,72.0,29.79,South,186,0.0,6.0,64,0.00,,,0.00,weatherlink.com 1.10,2013-06-27 17:10:00,
2013-06-27 13:25:00,85.9,74.0,29.78,East,94,1.0,4.0,67,0.00,,,0.00,weatherlink.com 1.10,2013-06-27 17:25:00,
2013-06-27 13:40:00,87.4,73.0,29.78,ENE,70,0.0,5.0,62,0.00,,,0.00,weatherlink.com 1.10,2013-06-27 17:40:00,
2013-06-27 13:55:00,87.6,72.0,29.78,South,191,1.0,4.0,61,0.00,,,0.00,weatherlink.com 1.10,2013-06-27 17:55:00,
2013-06-27 14:10:00,87.8,73.0,29.78,East,98,1.0,4.0,61,0.00,,,0.00,weatherlink.com 1.10,2013-06-27 18:10:00,
2013-06-27 14:25:00,88.2,72.0,29.77,East,87,1.0,4.0,59,0.00,,,0.00,weatherlink.com 1.10,2013-06-27 18:25:00,
2013-06-27 14:40:00,88.4,72.0,29.77,SSW,193,0.0,5.0,58,0.00,,,0.00,weatherlink.com 1.10,2013-06-27 18:40:00,
2013-06-27 14:55:00,89.3,73.0,29.76,SSW,200,0.0,3.0,58,0.00,,,0.00,weatherlink.com 1.10,2013-06-27 18:55:00,
2013-06-27 15:11:00,89.3,73.0,29.75,East,101,2.0,7.0,58,0.00,,,0.00,weatherlink.com 1.10,2013-06-27 19:11:00,
2013-06-27 15:26:00,89.3,72.0,29.74,ESE,122,0.0,2.0,57,0.00,,,0.00,weatherlink.com 1.10,2013-06-27 19:26:00,
2013-06-27 15:41:00,88.8,73.0,29.74,WSW,252,0.0,3.0,59,0.00,,,0.00,weatherlink.com 1.10,2013-06-27 19:41:00,
2013-06-27 15:56:00,89.7,73.0,29.73,SSW,210,1.0,3.0,58,0.00,,,0.00,weatherlink.com 1.10,2013-06-27 19:56:00,
2013-06-27 16:11:00,90.5,74.0,29.73,WNW,295,0.0,6.0,58,0.00,,,0.00,weatherlink.com 1.10,2013-06-27 20:11:00,
2013-06-27 16:26:00,90.1,72.0,29.71,SW,215,0.0,2.0,56,0.00,,,0.00,weatherlink.com 1.10,2013-06-27 20:26:00,
2013-06-27 16:56:00,88.0,71.0,29.72,ESE,109,0.0,6.0,58,0.00,,,0.00,weatherlink.com 1.10,2013-06-27 20:56:00,
2013-06-27 17:11:00,86.3,70.0,29.71,WSW,247,0.0,3.0,59,0.00,,,0.00,weatherlink.com 1.10,2013-06-27 21:11:00,
2013-06-27 17:26:00,84.7,73.0,29.72,WSW,247,0.0,1.0,69,0.00,,,0.00,weatherlink.com 1.10,2013-06-27 21:26:00,
2013-06-27 17:56:00,82.2,76.0,29.70,South,179,0.0,2.0,81,0.00,,,0.00,weatherlink.com 1.10,2013-06-27 21:56:00,
2013-06-27 18:11:00,83.4,74.0,29.70,South,179,0.0,1.0,73,0.00,,,0.00,weatherlink.com 1.10,2013-06-27 22:11:00,
2013-06-27 18:26:00,84.5,74.0,29.70,SE,124,0.0,7.0,70,0.00,,,0.00,weatherlink.com 1.10,2013-06-27 22:26:00,
2013-06-27 18:41:00,84.5,73.0,29.70,SE,124,0.0,2.0,68,0.00,,,0.00,weatherlink.com 1.10,2013-06-27 22:41:00,
2013-06-27 18:56:00,83.6,73.0,29.70,SSE,156,0.0,2.0,70,0.00,,,0.00,weatherlink.com 1.10,2013-06-27 22:56:00,
2013-06-27 19:11:00,82.8,74.0,29.70,SE,146,0.0,2.0,75,0.02,,,0.02,weatherlink.com 1.10,2013-06-27 23:11:00,
2013-06-27 19:41:00,79.0,75.0,29.71,SE,143,0.0,0.0,88,0.02,,,0.02,weatherlink.com 1.10,2013-06-27 23:41:00,
2013-06-27 19:56:00,78.6,76.0,29.73,SE,136,0.0,1.0,90,0.02,,,0.02,weatherlink.com 1.10,2013-06-27 23:56:00,
2013-06-27 20:11:00,78.3,76.0,29.73,SE,135,0.0,0.0,91,0.00,,,0.02,weatherlink.com 1.10,2013-06-28 00:11:00,
2013-06-27 20:26:00,77.9,76.0,29.73,SE,135,0.0,1.0,92,0.00,,,0.02,weatherlink.com 1.10,2013-06-28 00:26:00,
2013-06-27 20:41:00,76.8,73.0,29.74,SE,135,0.0,0.0,89,0.00,,,0.02,weatherlink.com 1.10,2013-06-28 00:41:00,
2013-06-27 20:56:00,75.8,72.0,29.73,SE,135,0.0,0.0,89,0.01,,,0.03,weatherlink.com 1.10,2013-06-28 00:56:00,
2013-06-27 21:11:00,75.6,73.0,29.74,SE,135,0.0,0.0,92,0.01,,,0.03,weatherlink.com 1.10,2013-06-28 01:11:00,
2013-06-27 21:26:00,75.4,73.0,29.74,SE,135,0.0,0.0,93,0.01,,,0.03,weatherlink.com 1.10,2013-06-28 01:26:00,
2013-06-27 21:41:00,75.4,73.0,29.75,SE,135,0.0,0.0,93,0.01,,,0.03,weatherlink.com 1.10,2013-06-28 01:41:00,
2013-06-27 21:56:00,75.3,74.0,29.74,SE,136,0.0,0.0,94,0.00,,,0.03,weatherlink.com 1.10,2013-06-28 01:56:00,
2013-06-27 22:11:00,75.1,73.0,29.74,SE,135,0.0,0.0,94,0.00,,,0.03,weatherlink.com 1.10,2013-06-28 02:11:00,
2013-06-27 22:26:00,75.1,74.0,29.75,SE,135,0.0,0.0,95,0.00,,,0.03,weatherlink.com 1.10,2013-06-28 02:26:00,
2013-06-27 22:41:00,74.7,73.0,29.75,SE,135,0.0,0.0,94,0.00,,,0.03,weatherlink.com 1.10,2013-06-28 02:41:00,
2013-06-27 22:56:00,74.4,73.0,29.76,SE,135,0.0,0.0,94,0.00,,,0.03,weatherlink.com 1.10,2013-06-28 02:56:00,
2013-06-27 23:11:00,74.2,72.0,29.75,SE,135,0.0,0.0,94,0.00,,,0.03,weatherlink.com 1.10,2013-06-28 03:11:00,
2013-06-27 23:26:00,74.0,73.0,29.75,SE,135,0.0,0.0,95,0.00,,,0.03,weatherlink.com 1.10,2013-06-28 03:26:00,
2013-06-27 23:41:00,73.7,72.0,29.73,SE,135,0.0,0.0,95,0.00,,,0.03,weatherlink.com 1.10,2013-06-28 03:41:00,
2013-06-27 23:56:00,73.5,72.0,29.73,SE,135,0.0,0.0,95,0.00,,,0.03,weatherlink.com 1.10,2013-06-28 03:56:00,